sensor_id;sensor_type;location;lat;lon;timestamp;temperature;humidity
10042;DHT22;5061;49.068;12.058;2024-03-07T00:01:17;4.90;99.90
10042;DHT22;5061;49.068;12.058;2024-03-07T00:04:38;4.90;99.90
10042;DHT22;5061;49.068;12.058;2024-03-07T00:07:58;4.80;99.90
10042;DHT22;5061;49.068;12.058;2024-03-07T00:11:19;4.80;99.90
10042;DHT22;5061;49.068;12.058;2024-03-07T00:14:40;4.80;99.90
10042;DHT22;5061;49.068;12.058;2024-03-07T00:18:00;4.70;99.90
10042;DHT22;5061;49.068;12.058;2024-03-07T00:21:21;4.60;99.90
10042;DHT22;5061;49.068;12.058;2024-03-07T00:24:42;4.60;99.90
10042;DHT22;5061;49.068;12.058;2024-03-07T00:28:03;4.60;99.90
10042;DHT22;5061;49.068;12.058;2024-03-07T00:31:24;4.60;99.90
10042;DHT22;5061;49.068;12.058;2024-03-07T00:34:45;4.50;99.90
10042;DHT22;5061;49.068;12.058;2024-03-07T00:38:05;4.50;99.90
10042;DHT22;5061;49.068;12.058;2024-03-07T00:41:26;4.50;99.90
10042;DHT22;5061;49.068;12.058;2024-03-07T00:44:46;4.40;99.90
10042;DHT22;5061;49.068;12.058;2024-03-07T00:48:07;4.40;99.90
10042;DHT22;5061;49.068;12.058;2024-03-07T00:51:28;4.40;99.90
10042;DHT22;5061;49.068;12.058;2024-03-07T00:54:49;4.30;99.90
10042;DHT22;5061;49.068;12.058;2024-03-07T00:58:10;4.30;99.90
10042;DHT22;5061;49.068;12.058;2024-03-07T01:01:31;4.30;99.90
10042;DHT22;5061;49.068;12.058;2024-03-07T01:04:53;4.30;99.90
10042;DHT22;5061;49.068;12.058;2024-03-07T01:08:14;4.20;99.90
10042;DHT22;5061;49.068;12.058;2024-03-07T01:11:35;4.20;99.90
10042;DHT22;5061;49.068;12.058;2024-03-07T01:14:56;4.10;99.90
10042;DHT22;5061;49.068;12.058;2024-03-07T01:18:17;4.10;99.90
10042;DHT22;5061;49.068;12.058;2024-03-07T01:21:38;4.00;99.90
10042;DHT22;5061;49.068;12.058;2024-03-07T01:24:59;4.00;99.90
10042;DHT22;5061;49.068;12.058;2024-03-07T01:28:20;3.90;99.90
10042;DHT22;5061;49.068;12.058;2024-03-07T01:31:42;3.90;99.90
10042;DHT22;5061;49.068;12.058;2024-03-07T01:35:04;3.80;99.90
10042;DHT22;5061;49.068;12.058;2024-03-07T01:38:27;3.80;99.90
10042;DHT22;5061;49.068;12.058;2024-03-07T01:41:47;3.80;99.90
10042;DHT22;5061;49.068;12.058;2024-03-07T01:45:08;3.70;99.90
10042;DHT22;5061;49.068;12.058;2024-03-07T01:48:31;3.70;99.90
10042;DHT22;5061;49.068;12.058;2024-03-07T01:51:52;3.60;99.90
10042;DHT22;5061;49.068;12.058;2024-03-07T01:55:12;3.60;99.90
10042;DHT22;5061;49.068;12.058;2024-03-07T01:58:35;3.50;99.90
10042;DHT22;5061;49.068;12.058;2024-03-07T02:01:57;3.50;99.90
10042;DHT22;5061;49.068;12.058;2024-03-07T02:05:17;3.40;99.90
10042;DHT22;5061;49.068;12.058;2024-03-07T02:08:38;3.40;99.90
10042;DHT22;5061;49.068;12.058;2024-03-07T02:11:59;3.30;99.90
10042;DHT22;5061;49.068;12.058;2024-03-07T02:15:20;3.30;99.90
10042;DHT22;5061;49.068;12.058;2024-03-07T02:18:40;3.30;99.90
10042;DHT22;5061;49.068;12.058;2024-03-07T02:22:01;3.20;99.90
10042;DHT22;5061;49.068;12.058;2024-03-07T02:25:22;3.20;99.90
10042;DHT22;5061;49.068;12.058;2024-03-07T02:28:42;3.10;99.90
10042;DHT22;5061;49.068;12.058;2024-03-07T02:32:04;3.10;99.90
10042;DHT22;5061;49.068;12.058;2024-03-07T02:35:24;3.10;99.90
10042;DHT22;5061;49.068;12.058;2024-03-07T02:38:45;3.00;99.90
10042;DHT22;5061;49.068;12.058;2024-03-07T02:42:06;3.00;99.90
10042;DHT22;5061;49.068;12.058;2024-03-07T02:45:26;3.00;99.90
10042;DHT22;5061;49.068;12.058;2024-03-07T02:48:47;2.90;99.90
10042;DHT22;5061;49.068;12.058;2024-03-07T02:52:07;2.80;99.90
10042;DHT22;5061;49.068;12.058;2024-03-07T02:55:28;2.80;99.90
10042;DHT22;5061;49.068;12.058;2024-03-07T02:58:49;2.80;99.90
10042;DHT22;5061;49.068;12.058;2024-03-07T03:02:09;2.80;99.90
10042;DHT22;5061;49.068;12.058;2024-03-07T03:05:30;2.70;99.90
10042;DHT22;5061;49.068;12.058;2024-03-07T03:08:51;2.70;99.90
10042;DHT22;5061;49.068;12.058;2024-03-07T03:12:14;2.70;99.90
10042;DHT22;5061;49.068;12.058;2024-03-07T03:15:35;2.70;99.90
10042;DHT22;5061;49.068;12.058;2024-03-07T03:18:58;2.70;99.90
10042;DHT22;5061;49.068;12.058;2024-03-07T03:22:18;2.70;99.90
10042;DHT22;5061;49.068;12.058;2024-03-07T03:25:39;2.70;99.90
10042;DHT22;5061;49.068;12.058;2024-03-07T03:29:00;2.60;99.90
10042;DHT22;5061;49.068;12.058;2024-03-07T03:32:21;2.60;99.90
10042;DHT22;5061;49.068;12.058;2024-03-07T03:35:42;2.60;99.90
10042;DHT22;5061;49.068;12.058;2024-03-07T03:39:02;2.60;99.90
10042;DHT22;5061;49.068;12.058;2024-03-07T03:42:23;2.60;99.90
10042;DHT22;5061;49.068;12.058;2024-03-07T03:45:43;2.60;99.90
10042;DHT22;5061;49.068;12.058;2024-03-07T03:49:04;2.60;99.90
10042;DHT22;5061;49.068;12.058;2024-03-07T03:52:26;2.60;99.90
10042;DHT22;5061;49.068;12.058;2024-03-07T03:55:49;2.60;99.90
10042;DHT22;5061;49.068;12.058;2024-03-07T03:59:10;2.50;99.90
10042;DHT22;5061;49.068;12.058;2024-03-07T04:02:30;2.50;99.90
10042;DHT22;5061;49.068;12.058;2024-03-07T04:05:51;2.50;99.90
10042;DHT22;5061;49.068;12.058;2024-03-07T04:09:11;2.50;99.90
10042;DHT22;5061;49.068;12.058;2024-03-07T04:12:33;2.50;99.90
10042;DHT22;5061;49.068;12.058;2024-03-07T04:15:54;2.50;99.90
10042;DHT22;5061;49.068;12.058;2024-03-07T04:19:14;2.50;99.90
10042;DHT22;5061;49.068;12.058;2024-03-07T04:22:36;2.40;99.90
10042;DHT22;5061;49.068;12.058;2024-03-07T04:25:59;2.40;99.90
10042;DHT22;5061;49.068;12.058;2024-03-07T04:29:20;2.40;99.90
10042;DHT22;5061;49.068;12.058;2024-03-07T04:32:40;2.40;99.90
10042;DHT22;5061;49.068;12.058;2024-03-07T04:36:02;2.40;99.90
10042;DHT22;5061;49.068;12.058;2024-03-07T04:39:23;2.40;99.90
10042;DHT22;5061;49.068;12.058;2024-03-07T04:42:52;2.30;99.90
10042;DHT22;5061;49.068;12.058;2024-03-07T04:46:13;2.40;99.90
10042;DHT22;5061;49.068;12.058;2024-03-07T04:49:34;2.30;99.90
10042;DHT22;5061;49.068;12.058;2024-03-07T04:52:55;2.20;99.90
10042;DHT22;5061;49.068;12.058;2024-03-07T04:56:15;2.20;99.90
10042;DHT22;5061;49.068;12.058;2024-03-07T04:59:36;2.10;99.90
10042;DHT22;5061;49.068;12.058;2024-03-07T05:02:57;2.00;99.90
10042;DHT22;5061;49.068;12.058;2024-03-07T05:06:18;2.00;99.90
10042;DHT22;5061;49.068;12.058;2024-03-07T05:09:38;2.00;99.90
10042;DHT22;5061;49.068;12.058;2024-03-07T05:12:59;1.90;99.90
10042;DHT22;5061;49.068;12.058;2024-03-07T05:16:20;1.80;99.90
10042;DHT22;5061;49.068;12.058;2024-03-07T05:19:40;1.80;99.90
10042;DHT22;5061;49.068;12.058;2024-03-07T05:23:01;1.80;99.90
10042;DHT22;5061;49.068;12.058;2024-03-07T05:26:25;1.80;99.90
10042;DHT22;5061;49.068;12.058;2024-03-07T05:29:46;1.70;99.90
10042;DHT22;5061;49.068;12.058;2024-03-07T05:33:07;1.70;99.90
10042;DHT22;5061;49.068;12.058;2024-03-07T05:36:27;1.70;99.90
10042;DHT22;5061;49.068;12.058;2024-03-07T05:39:51;1.70;99.90
10042;DHT22;5061;49.068;12.058;2024-03-07T05:43:12;1.70;99.90
10042;DHT22;5061;49.068;12.058;2024-03-07T05:46:33;1.60;99.90
10042;DHT22;5061;49.068;12.058;2024-03-07T05:49:55;1.70;99.90
10042;DHT22;5061;49.068;12.058;2024-03-07T05:53:16;1.70;99.90
10042;DHT22;5061;49.068;12.058;2024-03-07T05:56:39;1.70;99.90
10042;DHT22;5061;49.068;12.058;2024-03-07T05:59:59;1.70;99.90
10042;DHT22;5061;49.068;12.058;2024-03-07T06:03:20;1.70;99.90
10042;DHT22;5061;49.068;12.058;2024-03-07T06:06:41;1.70;99.90
10042;DHT22;5061;49.068;12.058;2024-03-07T06:10:02;1.70;99.90
10042;DHT22;5061;49.068;12.058;2024-03-07T06:13:23;1.80;99.90
10042;DHT22;5061;49.068;12.058;2024-03-07T06:16:44;1.80;99.90
10042;DHT22;5061;49.068;12.058;2024-03-07T06:20:05;1.80;99.90
10042;DHT22;5061;49.068;12.058;2024-03-07T06:23:37;1.90;99.90
10042;DHT22;5061;49.068;12.058;2024-03-07T06:26:58;1.90;99.90
10042;DHT22;5061;49.068;12.058;2024-03-07T06:30:23;1.90;99.90
10042;DHT22;5061;49.068;12.058;2024-03-07T06:33:44;2.00;99.90
10042;DHT22;5061;49.068;12.058;2024-03-07T06:37:05;2.00;99.90
10042;DHT22;5061;49.068;12.058;2024-03-07T06:40:26;2.00;99.90
10042;DHT22;5061;49.068;12.058;2024-03-07T06:43:46;2.10;99.90
10042;DHT22;5061;49.068;12.058;2024-03-07T06:47:07;2.10;99.90
10042;DHT22;5061;49.068;12.058;2024-03-07T06:50:28;2.10;99.90
10042;DHT22;5061;49.068;12.058;2024-03-07T06:53:49;2.20;99.90
10042;DHT22;5061;49.068;12.058;2024-03-07T06:57:10;2.30;99.90
10042;DHT22;5061;49.068;12.058;2024-03-07T07:00:31;2.30;99.90
10042;DHT22;5061;49.068;12.058;2024-03-07T07:03:57;2.30;99.90
10042;DHT22;5061;49.068;12.058;2024-03-07T07:07:19;2.30;99.90
10042;DHT22;5061;49.068;12.058;2024-03-07T07:10:40;2.30;99.90
10042;DHT22;5061;49.068;12.058;2024-03-07T07:14:01;2.40;99.90
10042;DHT22;5061;49.068;12.058;2024-03-07T07:17:25;2.40;99.90
10042;DHT22;5061;49.068;12.058;2024-03-07T07:20:52;2.40;99.90
10042;DHT22;5061;49.068;12.058;2024-03-07T07:24:12;2.40;99.90
10042;DHT22;5061;49.068;12.058;2024-03-07T07:27:33;2.40;99.90
10042;DHT22;5061;49.068;12.058;2024-03-07T07:30:53;2.40;99.90
10042;DHT22;5061;49.068;12.058;2024-03-07T07:34:14;2.50;99.90
10042;DHT22;5061;49.068;12.058;2024-03-07T07:37:35;2.50;99.90
10042;DHT22;5061;49.068;12.058;2024-03-07T07:40:57;2.60;99.90
10042;DHT22;5061;49.068;12.058;2024-03-07T07:44:17;2.60;99.90
10042;DHT22;5061;49.068;12.058;2024-03-07T07:47:40;2.60;99.90
10042;DHT22;5061;49.068;12.058;2024-03-07T07:51:02;2.70;99.90
10042;DHT22;5061;49.068;12.058;2024-03-07T07:54:25;2.70;99.90
10042;DHT22;5061;49.068;12.058;2024-03-07T07:57:48;2.70;99.90
10042;DHT22;5061;49.068;12.058;2024-03-07T08:01:08;2.70;99.90
10042;DHT22;5061;49.068;12.058;2024-03-07T08:04:30;2.80;99.90
10042;DHT22;5061;49.068;12.058;2024-03-07T08:07:55;2.80;99.90
10042;DHT22;5061;49.068;12.058;2024-03-07T08:11:15;2.90;99.90
10042;DHT22;5061;49.068;12.058;2024-03-07T08:14:36;2.90;99.90
10042;DHT22;5061;49.068;12.058;2024-03-07T08:17:57;2.90;99.90
10042;DHT22;5061;49.068;12.058;2024-03-07T08:21:18;3.00;99.90
10042;DHT22;5061;49.068;12.058;2024-03-07T08:24:39;3.00;99.90
10042;DHT22;5061;49.068;12.058;2024-03-07T08:28:00;3.00;99.90
10042;DHT22;5061;49.068;12.058;2024-03-07T08:31:21;3.10;99.90
10042;DHT22;5061;49.068;12.058;2024-03-07T08:34:42;3.20;99.90
10042;DHT22;5061;49.068;12.058;2024-03-07T08:38:02;3.20;99.90
10042;DHT22;5061;49.068;12.058;2024-03-07T08:41:23;3.30;99.90
10042;DHT22;5061;49.068;12.058;2024-03-07T08:44:44;3.40;99.90
10042;DHT22;5061;49.068;12.058;2024-03-07T08:48:05;3.40;99.90
10042;DHT22;5061;49.068;12.058;2024-03-07T08:51:27;3.50;99.90
10042;DHT22;5061;49.068;12.058;2024-03-07T08:54:48;3.60;99.90
10042;DHT22;5061;49.068;12.058;2024-03-07T08:58:09;3.70;99.90
10042;DHT22;5061;49.068;12.058;2024-03-07T09:01:29;3.70;99.90
10042;DHT22;5061;49.068;12.058;2024-03-07T09:04:50;3.80;99.90
10042;DHT22;5061;49.068;12.058;2024-03-07T09:08:11;3.80;99.90
10042;DHT22;5061;49.068;12.058;2024-03-07T09:11:31;3.90;99.90
10042;DHT22;5061;49.068;12.058;2024-03-07T09:14:52;3.90;99.90
10042;DHT22;5061;49.068;12.058;2024-03-07T09:18:13;4.00;99.90
10042;DHT22;5061;49.068;12.058;2024-03-07T09:21:34;4.00;99.90
10042;DHT22;5061;49.068;12.058;2024-03-07T09:24:54;4.20;99.90
10042;DHT22;5061;49.068;12.058;2024-03-07T09:28:15;4.10;99.90
10042;DHT22;5061;49.068;12.058;2024-03-07T09:31:35;4.20;99.90
10042;DHT22;5061;49.068;12.058;2024-03-07T09:34:57;4.30;99.90
10042;DHT22;5061;49.068;12.058;2024-03-07T09:38:17;4.30;99.90
10042;DHT22;5061;49.068;12.058;2024-03-07T09:41:38;4.40;99.90
10042;DHT22;5061;49.068;12.058;2024-03-07T09:45:02;4.40;99.90
10042;DHT22;5061;49.068;12.058;2024-03-07T09:48:23;4.40;99.90
10042;DHT22;5061;49.068;12.058;2024-03-07T09:51:51;4.50;99.90
10042;DHT22;5061;49.068;12.058;2024-03-07T09:55:16;4.60;99.90
10042;DHT22;5061;49.068;12.058;2024-03-07T09:58:39;4.80;99.90
10042;DHT22;5061;49.068;12.058;2024-03-07T10:02:03;4.90;99.90
10042;DHT22;5061;49.068;12.058;2024-03-07T10:05:27;5.00;99.90
10042;DHT22;5061;49.068;12.058;2024-03-07T10:08:48;5.10;99.90
10042;DHT22;5061;49.068;12.058;2024-03-07T10:12:09;5.20;99.90
10042;DHT22;5061;49.068;12.058;2024-03-07T10:15:33;5.20;99.90
10042;DHT22;5061;49.068;12.058;2024-03-07T10:18:54;5.30;99.90
10042;DHT22;5061;49.068;12.058;2024-03-07T10:22:15;5.40;99.90
10042;DHT22;5061;49.068;12.058;2024-03-07T10:25:36;5.60;99.90
10042;DHT22;5061;49.068;12.058;2024-03-07T10:28:58;5.80;99.90
10042;DHT22;5061;49.068;12.058;2024-03-07T10:32:22;6.00;99.90
10042;DHT22;5061;49.068;12.058;2024-03-07T10:35:47;6.10;99.90
10042;DHT22;5061;49.068;12.058;2024-03-07T10:39:09;6.20;99.90
10042;DHT22;5061;49.068;12.058;2024-03-07T10:42:37;6.20;99.90
10042;DHT22;5061;49.068;12.058;2024-03-07T10:45:59;6.30;99.90
10042;DHT22;5061;49.068;12.058;2024-03-07T10:49:22;6.40;99.90
10042;DHT22;5061;49.068;12.058;2024-03-07T10:53:07;6.40;99.90
10042;DHT22;5061;49.068;12.058;2024-03-07T10:56:46;6.40;99.90
10042;DHT22;5061;49.068;12.058;2024-03-07T11:00:09;6.40;99.90
10042;DHT22;5061;49.068;12.058;2024-03-07T11:03:49;6.50;99.90
10042;DHT22;5061;49.068;12.058;2024-03-07T11:07:12;6.60;99.90
10042;DHT22;5061;49.068;12.058;2024-03-07T11:10:33;6.70;99.90
10042;DHT22;5061;49.068;12.058;2024-03-07T11:13:56;6.80;99.90
10042;DHT22;5061;49.068;12.058;2024-03-07T11:17:21;6.80;99.90
10042;DHT22;5061;49.068;12.058;2024-03-07T11:20:42;6.90;99.90
10042;DHT22;5061;49.068;12.058;2024-03-07T11:24:06;6.90;99.90
10042;DHT22;5061;49.068;12.058;2024-03-07T11:27:27;6.80;99.90
10042;DHT22;5061;49.068;12.058;2024-03-07T11:30:48;6.80;99.90
10042;DHT22;5061;49.068;12.058;2024-03-07T11:34:13;6.70;99.90
10042;DHT22;5061;49.068;12.058;2024-03-07T11:37:41;6.70;99.90
10042;DHT22;5061;49.068;12.058;2024-03-07T11:41:09;6.70;99.90
10042;DHT22;5061;49.068;12.058;2024-03-07T11:44:33;6.70;99.90
10042;DHT22;5061;49.068;12.058;2024-03-07T11:48:00;6.90;99.90
10042;DHT22;5061;49.068;12.058;2024-03-07T11:51:27;7.10;99.90
10042;DHT22;5061;49.068;12.058;2024-03-07T11:54:49;7.30;99.90
10042;DHT22;5061;49.068;12.058;2024-03-07T11:58:14;7.50;99.90
10042;DHT22;5061;49.068;12.058;2024-03-07T12:01:36;7.60;99.90
10042;DHT22;5061;49.068;12.058;2024-03-07T12:04:57;7.70;99.90
10042;DHT22;5061;49.068;12.058;2024-03-07T12:08:18;7.70;99.90
10042;DHT22;5061;49.068;12.058;2024-03-07T12:11:43;7.70;99.90
10042;DHT22;5061;49.068;12.058;2024-03-07T12:15:06;7.80;99.90
10042;DHT22;5061;49.068;12.058;2024-03-07T12:18:32;7.80;99.90
10042;DHT22;5061;49.068;12.058;2024-03-07T12:21:57;7.90;99.90
10042;DHT22;5061;49.068;12.058;2024-03-07T12:25:20;8.00;99.90
10042;DHT22;5061;49.068;12.058;2024-03-07T12:28:44;8.10;99.90
10042;DHT22;5061;49.068;12.058;2024-03-07T12:32:07;8.20;99.90
10042;DHT22;5061;49.068;12.058;2024-03-07T12:35:36;8.30;99.90
10042;DHT22;5061;49.068;12.058;2024-03-07T12:38:57;8.40;99.90
10042;DHT22;5061;49.068;12.058;2024-03-07T12:42:17;8.50;99.90
10042;DHT22;5061;49.068;12.058;2024-03-07T12:45:43;8.60;99.90
10042;DHT22;5061;49.068;12.058;2024-03-07T12:49:04;8.70;99.90
10042;DHT22;5061;49.068;12.058;2024-03-07T12:52:24;8.80;99.90
10042;DHT22;5061;49.068;12.058;2024-03-07T12:55:45;8.80;99.90
10042;DHT22;5061;49.068;12.058;2024-03-07T12:59:07;8.80;99.90
10042;DHT22;5061;49.068;12.058;2024-03-07T13:02:29;8.70;99.90
10042;DHT22;5061;49.068;12.058;2024-03-07T13:05:50;8.60;99.90
10042;DHT22;5061;49.068;12.058;2024-03-07T13:09:10;8.40;99.90
10042;DHT22;5061;49.068;12.058;2024-03-07T13:12:31;8.40;99.90
10042;DHT22;5061;49.068;12.058;2024-03-07T13:15:52;8.30;99.90
10042;DHT22;5061;49.068;12.058;2024-03-07T13:19:15;8.20;99.90
10042;DHT22;5061;49.068;12.058;2024-03-07T13:22:41;8.10;99.90
10042;DHT22;5061;49.068;12.058;2024-03-07T13:26:08;8.00;99.90
10042;DHT22;5061;49.068;12.058;2024-03-07T13:29:36;7.90;99.90
10042;DHT22;5061;49.068;12.058;2024-03-07T13:32:58;7.90;99.90
10042;DHT22;5061;49.068;12.058;2024-03-07T13:36:19;7.90;99.90
10042;DHT22;5061;49.068;12.058;2024-03-07T13:39:43;7.90;99.90
10042;DHT22;5061;49.068;12.058;2024-03-07T13:43:04;7.90;99.90
10042;DHT22;5061;49.068;12.058;2024-03-07T13:46:25;7.90;99.90
10042;DHT22;5061;49.068;12.058;2024-03-07T13:49:46;7.80;99.90
10042;DHT22;5061;49.068;12.058;2024-03-07T13:53:06;7.80;99.90
10042;DHT22;5061;49.068;12.058;2024-03-07T13:56:42;7.70;99.90
10042;DHT22;5061;49.068;12.058;2024-03-07T14:00:32;7.70;99.90
10042;DHT22;5061;49.068;12.058;2024-03-07T14:11:57;7.50;99.90
10042;DHT22;5061;49.068;12.058;2024-03-07T14:30:44;7.30;99.90
10042;DHT22;5061;49.068;12.058;2024-03-07T14:34:16;7.30;99.90
10042;DHT22;5061;49.068;12.058;2024-03-07T14:38:06;7.30;99.90
10042;DHT22;5061;49.068;12.058;2024-03-07T14:41:47;7.20;99.90
10042;DHT22;5061;49.068;12.058;2024-03-07T14:45:13;7.20;99.90
10042;DHT22;5061;49.068;12.058;2024-03-07T14:48:35;7.20;99.90
10042;DHT22;5061;49.068;12.058;2024-03-07T14:51:56;7.10;99.90
10042;DHT22;5061;49.068;12.058;2024-03-07T14:55:17;7.10;99.90
10042;DHT22;5061;49.068;12.058;2024-03-07T14:58:39;7.00;99.90
10042;DHT22;5061;49.068;12.058;2024-03-07T15:02:00;7.00;99.90
10042;DHT22;5061;49.068;12.058;2024-03-07T15:05:24;6.90;99.90
10042;DHT22;5061;49.068;12.058;2024-03-07T15:08:44;6.80;99.90
10042;DHT22;5061;49.068;12.058;2024-03-07T15:12:05;6.80;99.90
10042;DHT22;5061;49.068;12.058;2024-03-07T15:15:27;6.70;99.90
10042;DHT22;5061;49.068;12.058;2024-03-07T15:18:51;6.70;99.90
10042;DHT22;5061;49.068;12.058;2024-03-07T15:22:12;6.60;99.90
10042;DHT22;5061;49.068;12.058;2024-03-07T15:25:33;6.60;99.90
10042;DHT22;5061;49.068;12.058;2024-03-07T15:28:54;6.50;99.90
10042;DHT22;5061;49.068;12.058;2024-03-07T15:32:15;6.40;99.90
10042;DHT22;5061;49.068;12.058;2024-03-07T15:35:37;6.40;99.90
10042;DHT22;5061;49.068;12.058;2024-03-07T15:38:58;6.30;99.90
10042;DHT22;5061;49.068;12.058;2024-03-07T15:42:19;6.30;99.90
10042;DHT22;5061;49.068;12.058;2024-03-07T15:45:39;6.20;99.90
10042;DHT22;5061;49.068;12.058;2024-03-07T15:49:02;6.20;99.90
10042;DHT22;5061;49.068;12.058;2024-03-07T15:52:22;6.10;99.90
10042;DHT22;5061;49.068;12.058;2024-03-07T15:55:43;6.10;99.90
10042;DHT22;5061;49.068;12.058;2024-03-07T15:59:04;6.00;99.90
10042;DHT22;5061;49.068;12.058;2024-03-07T16:02:25;5.90;99.90
10042;DHT22;5061;49.068;12.058;2024-03-07T16:05:45;5.90;99.90
10042;DHT22;5061;49.068;12.058;2024-03-07T16:09:06;5.90;99.90
10042;DHT22;5061;49.068;12.058;2024-03-07T16:12:27;5.80;99.90
10042;DHT22;5061;49.068;12.058;2024-03-07T16:15:50;5.80;99.90
10042;DHT22;5061;49.068;12.058;2024-03-07T16:19:11;5.70;99.90
10042;DHT22;5061;49.068;12.058;2024-03-07T16:22:31;5.70;99.90
10042;DHT22;5061;49.068;12.058;2024-03-07T16:25:52;5.70;99.90
10042;DHT22;5061;49.068;12.058;2024-03-07T16:29:12;5.70;99.90
10042;DHT22;5061;49.068;12.058;2024-03-07T16:32:34;5.70;99.90
10042;DHT22;5061;49.068;12.058;2024-03-07T16:35:55;5.70;99.90
10042;DHT22;5061;49.068;12.058;2024-03-07T16:39:21;5.70;99.90
10042;DHT22;5061;49.068;12.058;2024-03-07T16:42:50;5.60;99.90
10042;DHT22;5061;49.068;12.058;2024-03-07T16:46:11;5.60;99.90
10042;DHT22;5061;49.068;12.058;2024-03-07T16:49:32;5.50;99.90
10042;DHT22;5061;49.068;12.058;2024-03-07T16:52:54;5.50;99.90
10042;DHT22;5061;49.068;12.058;2024-03-07T16:56:15;5.40;99.90
10042;DHT22;5061;49.068;12.058;2024-03-07T16:59:38;5.30;99.90
10042;DHT22;5061;49.068;12.058;2024-03-07T17:03:00;5.20;99.90
10042;DHT22;5061;49.068;12.058;2024-03-07T17:06:22;5.10;99.90
10042;DHT22;5061;49.068;12.058;2024-03-07T17:09:42;5.00;99.90
10042;DHT22;5061;49.068;12.058;2024-03-07T17:13:03;4.90;99.90
10042;DHT22;5061;49.068;12.058;2024-03-07T17:16:30;4.80;99.90
10042;DHT22;5061;49.068;12.058;2024-03-07T17:19:51;4.80;99.90
10042;DHT22;5061;49.068;12.058;2024-03-07T17:23:12;4.70;99.90
10042;DHT22;5061;49.068;12.058;2024-03-07T17:26:32;4.70;99.90
10042;DHT22;5061;49.068;12.058;2024-03-07T17:29:54;4.60;99.90
10042;DHT22;5061;49.068;12.058;2024-03-07T17:33:15;4.60;99.90
10042;DHT22;5061;49.068;12.058;2024-03-07T17:36:36;4.50;99.90
10042;DHT22;5061;49.068;12.058;2024-03-07T17:39:57;4.40;99.90
10042;DHT22;5061;49.068;12.058;2024-03-07T17:43:17;4.40;99.90
10042;DHT22;5061;49.068;12.058;2024-03-07T17:46:39;4.40;99.90
10042;DHT22;5061;49.068;12.058;2024-03-07T17:49:59;4.30;99.90
10042;DHT22;5061;49.068;12.058;2024-03-07T17:53:22;4.30;99.90
10042;DHT22;5061;49.068;12.058;2024-03-07T17:56:46;4.20;99.90
10042;DHT22;5061;49.068;12.058;2024-03-07T18:00:07;4.20;99.90
10042;DHT22;5061;49.068;12.058;2024-03-07T18:03:29;4.20;99.90
10042;DHT22;5061;49.068;12.058;2024-03-07T18:06:50;4.20;99.90
10042;DHT22;5061;49.068;12.058;2024-03-07T18:10:13;4.20;99.90
10042;DHT22;5061;49.068;12.058;2024-03-07T18:13:43;4.20;99.90
10042;DHT22;5061;49.068;12.058;2024-03-07T18:17:04;4.30;99.90
10042;DHT22;5061;49.068;12.058;2024-03-07T18:20:28;4.30;99.90
10042;DHT22;5061;49.068;12.058;2024-03-07T18:23:49;4.30;99.90
10042;DHT22;5061;49.068;12.058;2024-03-07T18:27:09;4.30;99.90
10042;DHT22;5061;49.068;12.058;2024-03-07T18:30:33;4.30;99.90
10042;DHT22;5061;49.068;12.058;2024-03-07T18:33:54;4.20;99.90
10042;DHT22;5061;49.068;12.058;2024-03-07T18:37:15;4.20;99.90
10042;DHT22;5061;49.068;12.058;2024-03-07T18:40:35;4.10;99.90
10042;DHT22;5061;49.068;12.058;2024-03-07T18:43:56;4.10;99.90
10042;DHT22;5061;49.068;12.058;2024-03-07T18:47:16;4.10;99.90
10042;DHT22;5061;49.068;12.058;2024-03-07T18:50:39;4.00;99.90
10042;DHT22;5061;49.068;12.058;2024-03-07T18:54:05;4.00;99.90
10042;DHT22;5061;49.068;12.058;2024-03-07T18:57:29;4.00;99.90
10042;DHT22;5061;49.068;12.058;2024-03-07T19:00:50;3.90;99.90
10042;DHT22;5061;49.068;12.058;2024-03-07T19:04:10;3.90;99.90
10042;DHT22;5061;49.068;12.058;2024-03-07T19:07:31;3.80;99.90
10042;DHT22;5061;49.068;12.058;2024-03-07T19:10:54;3.80;99.90
10042;DHT22;5061;49.068;12.058;2024-03-07T19:14:18;3.80;99.90
10042;DHT22;5061;49.068;12.058;2024-03-07T19:17:38;3.70;99.90
10042;DHT22;5061;49.068;12.058;2024-03-07T19:21:00;3.70;99.90
10042;DHT22;5061;49.068;12.058;2024-03-07T19:24:29;3.60;99.90
10042;DHT22;5061;49.068;12.058;2024-03-07T19:27:50;3.50;99.90
10042;DHT22;5061;49.068;12.058;2024-03-07T19:31:11;3.50;99.90
10042;DHT22;5061;49.068;12.058;2024-03-07T19:34:34;3.50;99.90
10042;DHT22;5061;49.068;12.058;2024-03-07T19:37:54;3.40;99.90
10042;DHT22;5061;49.068;12.058;2024-03-07T19:41:15;3.40;99.90
10042;DHT22;5061;49.068;12.058;2024-03-07T19:44:40;3.30;99.90
10042;DHT22;5061;49.068;12.058;2024-03-07T19:48:04;3.30;99.90
10042;DHT22;5061;49.068;12.058;2024-03-07T19:51:25;3.30;99.90
10042;DHT22;5061;49.068;12.058;2024-03-07T19:54:46;3.30;99.90
10042;DHT22;5061;49.068;12.058;2024-03-07T19:58:07;3.20;99.90
10042;DHT22;5061;49.068;12.058;2024-03-07T20:01:28;3.10;99.90
10042;DHT22;5061;49.068;12.058;2024-03-07T20:04:48;3.10;99.90
10042;DHT22;5061;49.068;12.058;2024-03-07T20:08:11;3.10;99.90
10042;DHT22;5061;49.068;12.058;2024-03-07T20:11:34;3.00;99.90
10042;DHT22;5061;49.068;12.058;2024-03-07T20:14:57;3.00;99.90
10042;DHT22;5061;49.068;12.058;2024-03-07T20:18:17;3.00;99.90
10042;DHT22;5061;49.068;12.058;2024-03-07T20:21:38;3.00;99.90
10042;DHT22;5061;49.068;12.058;2024-03-07T20:24:59;2.90;99.90
10042;DHT22;5061;49.068;12.058;2024-03-07T20:28:19;2.90;99.90
10042;DHT22;5061;49.068;12.058;2024-03-07T20:31:40;2.90;99.90
10042;DHT22;5061;49.068;12.058;2024-03-07T20:35:01;2.90;99.90
10042;DHT22;5061;49.068;12.058;2024-03-07T20:38:26;2.80;99.90
10042;DHT22;5061;49.068;12.058;2024-03-07T20:41:49;2.80;99.90
10042;DHT22;5061;49.068;12.058;2024-03-07T20:45:11;2.80;99.90
10042;DHT22;5061;49.068;12.058;2024-03-07T20:48:32;2.80;99.90
10042;DHT22;5061;49.068;12.058;2024-03-07T20:51:53;2.70;99.90
10042;DHT22;5061;49.068;12.058;2024-03-07T20:55:15;2.70;99.90
10042;DHT22;5061;49.068;12.058;2024-03-07T20:58:36;2.70;99.90
10042;DHT22;5061;49.068;12.058;2024-03-07T21:01:57;2.70;99.90
10042;DHT22;5061;49.068;12.058;2024-03-07T21:05:18;2.60;99.90
10042;DHT22;5061;49.068;12.058;2024-03-07T21:08:39;2.60;99.90
10042;DHT22;5061;49.068;12.058;2024-03-07T21:12:02;2.60;99.90
10042;DHT22;5061;49.068;12.058;2024-03-07T21:15:23;2.60;99.90
10042;DHT22;5061;49.068;12.058;2024-03-07T21:18:46;2.60;99.90
10042;DHT22;5061;49.068;12.058;2024-03-07T21:22:07;2.50;99.90
10042;DHT22;5061;49.068;12.058;2024-03-07T21:25:27;2.50;99.90
10042;DHT22;5061;49.068;12.058;2024-03-07T21:28:48;2.50;99.90
10042;DHT22;5061;49.068;12.058;2024-03-07T21:32:09;2.50;99.90
10042;DHT22;5061;49.068;12.058;2024-03-07T21:35:31;2.40;99.90
10042;DHT22;5061;49.068;12.058;2024-03-07T21:38:52;2.40;99.90
10042;DHT22;5061;49.068;12.058;2024-03-07T21:42:13;2.30;99.90
10042;DHT22;5061;49.068;12.058;2024-03-07T21:45:34;2.30;99.90
10042;DHT22;5061;49.068;12.058;2024-03-07T21:48:57;2.20;99.90
10042;DHT22;5061;49.068;12.058;2024-03-07T21:52:17;2.20;99.90
10042;DHT22;5061;49.068;12.058;2024-03-07T21:55:38;2.20;99.90
10042;DHT22;5061;49.068;12.058;2024-03-07T21:58:58;2.20;99.90